createdAt,value
2018-10-18T00:00:03.455Z,99155.02
2018-10-18T00:02:35.767Z,99154.18
2018-10-18T00:05:08.980Z,99160.68
2018-10-18T00:07:41.154Z,99162.52
2018-10-18T00:10:13.768Z,99164.83
2018-10-18T00:12:46.391Z,99170.36
2018-10-18T00:15:18.537Z,99174.61
2018-10-18T00:17:50.730Z,99168.58
2018-10-18T00:20:22.857Z,99176.16
2018-10-18T00:22:55.139Z,99182.86
2018-10-18T00:25:27.278Z,99186.17
2018-10-18T00:27:59.842Z,99184.48
2018-10-18T00:30:31.783Z,99181.19
2018-10-18T00:33:05.000Z,99182.19
2018-10-18T00:35:37.042Z,99186.97
2018-10-18T00:38:09.228Z,99188.02
2018-10-18T00:40:41.832Z,99190.52
2018-10-18T00:43:14.121Z,99194.77
2018-10-18T00:45:46.185Z,99195.14
2018-10-18T00:48:18.345Z,99196.05
2018-10-18T00:50:50.745Z,99210.16
2018-10-18T00:53:23.876Z,99207.55
2018-10-18T00:55:55.864Z,99210.28
2018-10-18T00:58:28.483Z,99208.46
2018-10-18T01:01:00.727Z,99221.94
2018-10-18T01:03:32.899Z,99214.89
2018-10-18T01:06:04.927Z,99220.88
2018-10-18T01:08:37.331Z,99225.33
2018-10-18T01:11:09.738Z,99229.61
2018-10-18T01:13:41.738Z,99230.32
2018-10-18T01:16:14.033Z,99220.20
2018-10-18T01:18:46.402Z,99225.80
2018-10-18T01:21:18.540Z,99225.28
2018-10-18T01:23:50.936Z,99229.06
2018-10-18T01:26:23.091Z,99224.02
2018-10-18T01:28:55.761Z,99230.02
2018-10-18T01:31:29.065Z,99237.92
2018-10-18T01:34:01.404Z,99240.81
2018-10-18T01:36:34.079Z,99241.63
2018-10-18T01:39:07.642Z,99243.39
2018-10-18T01:41:40.563Z,99249.55
2018-10-18T01:44:13.279Z,99246.65
2018-10-18T01:46:46.156Z,99244.27
2018-10-18T01:49:18.252Z,99238.36
2018-10-18T01:51:50.598Z,99239.64
2018-10-18T01:54:22.985Z,99247.33
2018-10-18T01:56:55.104Z,99253.83
2018-10-18T01:59:27.551Z,99245.53
2018-10-18T02:01:59.957Z,99251.39
2018-10-18T02:04:32.614Z,99253.46
2018-10-18T02:07:05.095Z,99254.47
2018-10-18T02:09:37.272Z,99256.91
2018-10-18T02:12:10.703Z,99258.48
2018-10-18T02:14:43.492Z,99265.08
2018-10-18T02:17:15.616Z,99268.73
2018-10-18T02:19:47.927Z,99261.80
2018-10-18T02:22:20.365Z,99265.03
2018-10-18T02:24:52.573Z,99254.22
2018-10-18T02:27:24.482Z,99260.39
2018-10-18T02:29:57.100Z,99269.11
2018-10-18T02:32:29.641Z,99272.09
2018-10-18T02:35:02.403Z,99276.72
2018-10-18T02:37:34.604Z,99285.18
2018-10-18T02:40:07.050Z,99286.46
2018-10-18T02:42:39.715Z,99290.43
2018-10-18T02:45:12.034Z,99289.39
2018-10-18T02:47:44.034Z,99294.48
2018-10-18T02:50:15.825Z,99291.63
2018-10-18T02:52:48.187Z,99290.20
2018-10-18T02:55:20.504Z,99294.77
2018-10-18T02:57:52.628Z,99294.82
2018-10-18T03:00:24.941Z,99298.92
2018-10-18T03:02:57.133Z,99307.25
2018-10-18T03:05:29.217Z,99306.80
2018-10-18T03:08:00.950Z,99312.72
2018-10-18T03:10:33.729Z,99326.45
2018-10-18T03:13:07.071Z,99336.95
2018-10-18T03:15:39.292Z,99336.61
2018-10-18T03:18:11.221Z,99337.41
2018-10-18T03:20:43.408Z,99337.47
2018-10-18T03:23:15.530Z,99346.28
2018-10-18T03:25:47.634Z,99344.75
2018-10-18T03:28:19.547Z,99339.33
2018-10-18T03:30:51.744Z,99341.89
2018-10-18T03:33:23.838Z,99345.86
2018-10-18T03:35:57.372Z,99351.44
2018-10-18T03:38:30.596Z,99343.44
2018-10-18T03:41:02.713Z,99344.69
2018-10-18T03:43:35.212Z,99345.83
2018-10-18T03:46:07.216Z,99337.67
2018-10-18T03:48:38.949Z,99331.80
2018-10-18T03:51:11.073Z,99346.83
2018-10-18T03:53:42.787Z,99332.25
2018-10-18T03:56:14.886Z,99342.98
2018-10-18T03:58:46.967Z,99346.02
2018-10-18T04:01:18.796Z,99352.44
2018-10-18T04:03:50.537Z,99346.74
2018-10-18T04:06:22.593Z,99350.42
2018-10-18T04:08:54.435Z,99343.82
2018-10-18T04:11:26.480Z,99342.33
2018-10-18T04:13:58.898Z,99353.88
2018-10-18T04:16:31.345Z,99351.33
2018-10-18T04:19:03.316Z,99354.49
2018-10-18T04:21:35.411Z,99352.75
2018-10-18T04:24:07.461Z,99350.89
2018-10-18T04:26:39.521Z,99349.51
2018-10-18T04:29:11.286Z,99346.08
2018-10-18T04:31:43.365Z,99340.98
2018-10-18T04:34:15.364Z,99343.05
2018-10-18T04:36:47.871Z,99351.34
2018-10-18T04:39:19.949Z,99346.92
2018-10-18T04:41:52.300Z,99351.19
2018-10-18T04:44:24.988Z,99343.18
2018-10-18T04:46:58.106Z,99341.80
2018-10-18T04:49:30.084Z,99340.20
2018-10-18T04:52:02.189Z,99335.36
2018-10-18T04:55:58.389Z,99336.41
2018-10-18T04:58:30.766Z,99331.95
2018-10-18T05:01:02.753Z,99325.63
2018-10-18T05:03:35.588Z,99322.81
2018-10-18T05:06:07.662Z,99322.33
2018-10-18T05:08:39.816Z,99320.83
2018-10-18T05:11:11.799Z,99316.98
2018-10-18T05:13:43.874Z,99318.34
2018-10-18T05:16:16.581Z,99318.32
2018-10-18T05:18:48.724Z,99314.66
2018-10-18T05:21:20.389Z,99310.14
2018-10-18T05:23:52.634Z,99300.25
2018-10-18T05:26:24.389Z,99292.45
2018-10-18T05:28:56.615Z,99291.21
2018-10-18T05:31:28.631Z,99286.04
2018-10-18T05:34:00.836Z,99279.73
2018-10-18T05:36:32.801Z,99276.05
2018-10-18T05:39:05.331Z,99278.22
2018-10-18T05:41:37.377Z,99273.77
2018-10-18T05:44:09.321Z,99263.68
2018-10-18T05:46:42.461Z,99261.61
2018-10-18T05:49:14.687Z,99262.06
2018-10-18T05:51:46.961Z,99259.40
2018-10-18T05:54:18.804Z,99262.27
2018-10-18T05:56:50.960Z,99251.43
2018-10-18T05:59:22.885Z,99249.61
2018-10-18T06:01:54.991Z,99242.78
2018-10-18T06:04:27.691Z,99242.80
2018-10-18T06:07:00.046Z,99239.25
2018-10-18T06:09:33.686Z,99237.59
2018-10-18T06:12:05.828Z,99224.74
2018-10-18T06:14:38.109Z,99229.55
2018-10-18T06:17:10.523Z,99220.92
2018-10-18T06:19:42.977Z,99214.02
2018-10-18T06:22:15.162Z,99208.28
2018-10-18T06:24:47.143Z,99210.48
2018-10-18T06:27:19.140Z,99201.60
2018-10-18T06:29:51.306Z,99196.79
2018-10-18T06:32:23.555Z,99190.87
2018-10-18T06:34:56.419Z,99191.31
2018-10-18T06:37:28.800Z,99183.00
2018-10-18T06:40:01.116Z,99172.58
2018-10-18T06:42:33.328Z,99167.77
2018-10-18T06:45:06.098Z,99167.86
2018-10-18T06:47:41.185Z,99166.96
2018-10-18T06:50:18.797Z,99160.31
2018-10-18T06:52:51.128Z,99149.09
2018-10-18T06:55:24.063Z,99139.95
2018-10-18T06:57:56.853Z,99140.58
2018-10-18T07:00:29.500Z,99134.59
2018-10-18T07:03:03.411Z,99122.84
2018-10-18T07:05:35.697Z,99119.13
2018-10-18T07:08:08.616Z,99116.94
2018-10-18T07:10:40.693Z,99111.26
2018-10-18T07:13:13.491Z,99104.67
2018-10-18T07:15:45.662Z,99094.30
2018-10-18T07:18:18.306Z,99090.70
2018-10-18T07:20:50.855Z,99090.26
2018-10-18T07:23:23.037Z,99085.79
2018-10-18T07:25:55.210Z,99077.92
2018-10-18T07:28:27.486Z,99070.91
2018-10-18T07:30:59.821Z,99070.79
2018-10-18T07:33:32.238Z,99062.13
2018-10-18T07:36:04.426Z,99055.67
2018-10-18T07:38:38.331Z,99050.80
2018-10-18T07:43:42.100Z,99046.42
2018-10-18T07:46:14.321Z,99038.48
2018-10-18T07:51:19.436Z,99024.83
2018-10-18T07:53:51.955Z,99017.30
2018-10-18T07:56:24.184Z,99014.23
2018-10-18T07:58:56.922Z,99006.01
2018-10-18T08:01:29.571Z,99006.45
2018-10-18T08:04:01.700Z,99013.95
2018-10-18T08:06:33.728Z,98999.37
2018-10-18T08:09:08.511Z,98998.27
2018-10-18T08:11:40.962Z,98990.05
2018-10-18T08:14:13.095Z,98984.11
2018-10-18T08:16:45.347Z,98975.34
2018-10-18T08:19:17.707Z,98969.50
2018-10-18T08:21:50.104Z,98966.81
2018-10-18T08:24:22.387Z,98959.91
2018-10-18T08:26:54.445Z,98952.03
2018-10-18T08:29:26.906Z,98955.02
2018-10-18T08:31:59.037Z,98951.81
2018-10-18T08:34:31.560Z,98952.59
2018-10-18T08:37:03.714Z,98952.74
2018-10-18T08:39:35.943Z,98953.56
2018-10-18T08:42:08.219Z,98956.18
2018-10-18T08:44:40.352Z,98961.42
2018-10-18T08:47:12.515Z,98954.87
2018-10-18T08:49:45.495Z,98951.61
2018-10-18T08:52:17.793Z,98956.47
2018-10-18T08:54:49.813Z,98954.31
2018-10-18T08:57:21.849Z,98950.44
2018-10-18T08:59:54.112Z,98945.58
2018-10-18T09:02:27.164Z,98946.86
2018-10-18T09:04:59.188Z,98948.39
2018-10-18T09:07:31.435Z,98944.30
2018-10-18T09:10:03.866Z,98949.86
2018-10-18T09:12:36.182Z,98946.98
2018-10-18T09:15:09.382Z,98925.66
2018-10-18T09:17:41.746Z,98917.53
2018-10-18T09:20:14.340Z,98916.48
2018-10-18T09:22:46.349Z,98914.36
2018-10-18T09:25:18.884Z,98911.36
2018-10-18T09:27:51.173Z,98910.86
2018-10-18T09:30:23.683Z,98913.52
2018-10-18T09:32:56.205Z,98907.71
2018-10-18T09:35:28.416Z,98905.36
2018-10-18T09:38:00.948Z,98889.53
2018-10-18T09:40:33.113Z,98891.50
2018-10-18T09:43:05.424Z,98897.85
2018-10-18T09:45:37.816Z,98898.51
2018-10-18T09:48:10.129Z,98901.88
2018-10-18T09:50:42.815Z,98903.52
2018-10-18T09:53:15.988Z,98901.52
2018-10-18T09:55:48.556Z,98899.16
2018-10-18T09:58:20.996Z,98893.82
2018-10-18T10:00:58.780Z,98880.31
2018-10-18T10:03:30.936Z,98878.84
2018-10-18T10:06:02.821Z,98868.80
2018-10-18T10:08:35.115Z,98868.83
2018-10-18T10:11:07.264Z,98864.91
2018-10-18T10:13:39.565Z,98874.22
2018-10-18T10:16:12.032Z,98871.42
2018-10-18T10:18:44.347Z,98872.98
2018-10-18T10:21:16.875Z,98874.34
2018-10-18T10:23:49.178Z,98881.45
2018-10-18T10:26:21.456Z,98883.13
2018-10-18T10:28:53.763Z,98877.87
2018-10-18T10:31:26.027Z,98886.91
2018-10-18T10:33:58.286Z,98894.30
2018-10-18T10:36:30.754Z,98905.58
2018-10-18T10:39:03.320Z,98910.07
2018-10-18T10:41:35.639Z,98911.30
2018-10-18T10:44:09.146Z,98915.05
2018-10-18T10:46:42.278Z,98904.69
2018-10-18T10:49:16.030Z,98910.70
2018-10-18T10:51:48.649Z,98914.75
2018-10-18T10:54:20.392Z,98923.08
2018-10-18T10:56:52.341Z,98925.02
2018-10-18T10:59:24.455Z,98920.73
2018-10-18T11:04:46.428Z,98933.94
2018-10-18T11:07:18.466Z,98932.73
2018-10-18T11:09:50.943Z,98936.07
2018-10-18T11:12:23.229Z,98933.02
2018-10-18T11:14:55.742Z,98930.70
2018-10-18T11:17:28.011Z,98932.23
2018-10-18T11:20:01.816Z,98927.56
2018-10-18T11:22:34.573Z,98934.84
2018-10-18T11:25:07.211Z,98925.39
2018-10-18T11:27:39.453Z,98931.11
2018-10-18T11:30:11.424Z,98929.85
2018-10-18T11:32:43.723Z,98927.48
2018-10-18T11:35:15.670Z,98927.01
2018-10-18T11:37:47.541Z,98929.66
2018-10-18T11:40:20.628Z,98935.83
2018-10-18T11:42:53.806Z,98935.19
2018-10-18T11:45:26.122Z,98937.17
2018-10-18T11:47:58.373Z,98935.16
2018-10-18T11:50:30.601Z,98936.19
2018-10-18T11:53:08.511Z,98936.81
2018-10-18T11:55:40.943Z,98935.80
2018-10-18T11:58:13.737Z,98936.81
2018-10-18T12:00:45.682Z,98938.94
2018-10-18T12:03:17.984Z,98931.60
2018-10-18T12:05:50.968Z,98937.91
2018-10-18T12:08:23.217Z,98944.38
2018-10-18T12:10:55.554Z,98940.98
2018-10-18T12:13:27.804Z,98944.22
2018-10-18T12:15:59.776Z,98941.70
2018-10-18T12:18:32.511Z,98944.63
2018-10-18T12:21:04.805Z,98943.22
2018-10-18T12:23:37.728Z,98948.97
2018-10-18T12:26:09.944Z,98952.13
2018-10-18T12:28:42.106Z,98958.22
2018-10-18T12:31:14.370Z,98948.70
2018-10-18T12:33:46.553Z,98954.59
2018-10-18T12:36:18.732Z,98952.41
2018-10-18T12:38:50.944Z,98951.73
2018-10-18T12:41:23.518Z,98961.31
2018-10-18T12:43:55.648Z,98960.23
2018-10-18T12:46:28.014Z,98953.77
2018-10-18T12:49:00.039Z,98949.80
2018-10-18T12:51:32.252Z,98959.14
2018-10-18T12:54:04.879Z,98956.09
2018-10-18T12:56:37.121Z,98951.73
2018-10-18T12:59:08.973Z,98956.86
2018-10-18T13:01:41.116Z,98958.42
2018-10-18T13:04:13.350Z,98960.92
2018-10-18T13:06:45.637Z,98964.73
2018-10-18T13:09:17.963Z,98971.75
2018-10-18T13:11:49.947Z,98977.06
2018-10-18T13:14:22.188Z,98974.66
2018-10-18T13:16:54.469Z,98976.56
2018-10-18T13:19:26.974Z,98977.34
2018-10-18T13:21:59.351Z,98984.33
2018-10-18T13:24:32.312Z,98991.67
2018-10-18T13:27:04.793Z,98996.91
2018-10-18T13:29:37.113Z,99007.93
2018-10-18T13:32:09.482Z,99014.83
2018-10-18T13:34:42.813Z,99014.91
2018-10-18T13:37:15.182Z,99017.20
2018-10-18T13:39:47.483Z,99015.37
2018-10-18T13:42:19.979Z,99021.88
2018-10-18T13:44:52.151Z,99016.67
2018-10-18T13:47:24.358Z,99021.74
2018-10-18T13:49:56.350Z,99029.08
2018-10-18T13:52:28.462Z,99026.48
2018-10-18T13:55:00.935Z,99026.95
2018-10-18T13:57:33.324Z,99029.17
2018-10-18T14:00:19.838Z,99032.41
2018-10-18T14:02:53.296Z,99032.36
2018-10-18T14:05:25.886Z,99034.21
2018-10-18T14:07:59.192Z,99039.30
2018-10-18T14:10:31.515Z,99035.27
2018-10-18T14:13:03.991Z,99041.68
2018-10-18T14:15:35.980Z,99040.84
2018-10-18T14:18:07.974Z,99038.63
2018-10-18T14:20:40.449Z,99048.75
2018-10-18T14:24:15.787Z,99048.75
2018-10-18T14:26:48.152Z,99046.27
2018-10-18T14:29:20.656Z,99047.68
2018-10-18T14:31:52.892Z,99047.45
2018-10-18T14:34:25.071Z,99050.19
2018-10-18T14:36:57.372Z,99047.45
2018-10-18T14:39:29.593Z,99054.70
2018-10-18T14:42:01.497Z,99057.09
2018-10-18T14:44:33.746Z,99058.36
2018-10-18T14:47:06.174Z,99059.11
2018-10-18T14:49:38.553Z,99059.14
2018-10-18T14:52:10.732Z,99056.57
2018-10-18T14:54:43.012Z,99060.67
2018-10-18T14:57:16.270Z,99068.56
2018-10-18T14:59:48.684Z,99068.11
2018-10-18T15:02:20.925Z,99070.29
2018-10-18T15:04:53.804Z,99070.97
2018-10-18T15:07:26.140Z,99077.91
2018-10-18T15:09:58.210Z,99077.42
2018-10-18T15:12:30.437Z,99079.27
2018-10-18T15:15:02.592Z,99079.59
2018-10-18T15:17:34.703Z,99078.38
2018-10-18T15:20:07.763Z,99075.16
2018-10-18T15:22:40.642Z,99073.77
2018-10-18T15:25:13.714Z,99083.30
2018-10-18T15:27:46.180Z,99078.72
2018-10-18T15:30:18.367Z,99077.75
2018-10-18T15:32:51.178Z,99077.23
2018-10-18T15:35:23.663Z,99086.20
2018-10-18T15:37:56.889Z,99088.08
2018-10-18T15:40:29.223Z,99091.46
2018-10-18T15:43:01.597Z,99093.07
2018-10-18T15:45:34.114Z,99094.45
2018-10-18T15:48:06.278Z,99098.73
2018-10-18T15:50:38.458Z,99102.27
2018-10-18T15:53:10.569Z,99102.80
2018-10-18T15:55:42.841Z,99102.75
2018-10-18T15:58:15.317Z,99100.34
2018-10-18T16:00:47.917Z,99102.64
2018-10-18T16:03:20.016Z,99104.80
2018-10-18T16:05:52.272Z,99101.84
2018-10-18T16:08:24.419Z,99105.88
2018-10-18T16:10:56.818Z,99100.77
2018-10-18T16:13:29.018Z,99103.23
2018-10-18T16:16:01.232Z,99108.45
2018-10-18T16:18:33.480Z,99110.98
2018-10-18T16:21:05.988Z,99110.42
2018-10-18T16:23:38.164Z,99116.37
2018-10-18T16:26:10.530Z,99113.14
2018-10-18T16:28:43.142Z,99106.66
2018-10-18T16:31:15.658Z,99114.51
2018-10-18T16:33:47.813Z,99113.28
2018-10-18T16:36:20.656Z,99114.78
2018-10-18T16:38:53.353Z,99110.45
2018-10-18T16:41:26.237Z,99103.41
2018-10-18T16:43:58.393Z,99111.51
2018-10-18T16:46:30.804Z,99106.05
2018-10-18T16:49:03.269Z,99109.95
2018-10-18T16:51:35.543Z,99111.45
2018-10-18T16:54:08.444Z,99109.45
2018-10-18T16:56:40.739Z,99115.94
2018-10-18T16:59:13.324Z,99120.59
2018-10-18T17:01:45.639Z,99119.98
2018-10-18T17:04:17.667Z,99124.95
2018-10-18T17:06:49.756Z,99116.66
2018-10-18T17:09:22.238Z,99115.70
2018-10-18T17:11:54.483Z,99119.51
2018-10-18T17:14:26.927Z,99115.34
2018-10-18T17:16:59.278Z,99118.10
2018-10-18T17:19:31.545Z,99111.17
2018-10-18T17:22:03.685Z,99107.57
2018-10-18T17:24:36.153Z,99111.30
2018-10-18T17:27:08.437Z,99114.45
2018-10-18T17:29:41.176Z,99116.16
2018-10-18T17:32:13.450Z,99120.63
2018-10-18T17:34:45.754Z,99122.80
2018-10-18T17:37:17.944Z,99116.19
2018-10-18T17:39:50.699Z,99120.63
2018-10-18T17:42:22.842Z,99119.19
2018-10-18T17:44:54.966Z,99120.33
2018-10-18T17:47:27.124Z,99111.09
2018-10-18T17:49:59.237Z,99116.87
2018-10-18T17:52:31.611Z,99109.67
2018-10-18T17:55:03.767Z,99116.28
2018-10-18T17:57:36.372Z,99112.19
2018-10-18T18:00:11.977Z,99104.32
2018-10-18T18:02:44.431Z,99104.73
2018-10-18T18:05:16.522Z,99102.27
2018-10-18T18:07:48.740Z,99103.48
2018-10-18T18:10:20.872Z,99106.59
2018-10-18T18:12:53.423Z,99104.02
2018-10-18T18:15:25.547Z,99101.30
2018-10-18T18:17:58.452Z,99102.98
2018-10-18T18:20:31.485Z,99101.84
2018-10-18T18:23:03.810Z,99104.97
2018-10-18T18:25:35.790Z,99101.86
2018-10-18T18:28:07.878Z,99108.94
2018-10-18T18:30:40.358Z,99107.38
2018-10-18T18:33:12.652Z,99104.66
2018-10-18T18:35:44.714Z,99102.69
2018-10-18T18:38:17.139Z,99104.30
2018-10-18T18:40:49.372Z,99103.63
2018-10-18T18:43:21.460Z,99103.88
2018-10-18T18:45:53.568Z,99104.16
2018-10-18T18:48:25.455Z,99105.77
2018-10-18T18:50:57.602Z,99104.02
2018-10-18T18:53:29.940Z,99106.93
2018-10-18T18:56:02.082Z,99102.53
2018-10-18T18:58:34.357Z,99100.37
2018-10-18T19:01:07.038Z,99099.95
2018-10-18T19:03:39.405Z,99104.91
2018-10-18T19:06:11.757Z,99106.47
2018-10-18T19:08:44.029Z,99099.05
2018-10-18T19:11:16.185Z,99104.95
2018-10-18T19:13:48.287Z,99108.43
2018-10-18T19:16:20.678Z,99109.91
2018-10-18T19:18:52.718Z,99107.30
2018-10-18T19:21:25.268Z,99107.41
2018-10-18T19:23:57.620Z,99112.70
2018-10-18T19:26:29.733Z,99112.12
2018-10-18T19:29:02.071Z,99113.81
2018-10-18T19:31:34.741Z,99115.46
2018-10-18T19:34:07.165Z,99122.34
2018-10-18T19:36:39.233Z,99123.16
2018-10-18T19:39:11.515Z,99131.89
2018-10-18T19:41:43.388Z,99129.52
2018-10-18T19:44:15.692Z,99129.85
2018-10-18T19:46:47.893Z,99124.72
2018-10-18T19:49:20.214Z,99124.95
2018-10-18T19:51:52.284Z,99136.45
2018-10-18T19:54:24.358Z,99130.22
2018-10-18T19:56:57.720Z,99135.72
2018-10-18T19:59:29.595Z,99128.80
2018-10-18T20:02:02.478Z,99128.91
2018-10-18T20:04:34.850Z,99135.72
2018-10-18T20:07:06.992Z,99139.20
2018-10-18T20:09:39.117Z,99140.52
2018-10-18T20:12:11.159Z,99140.89
2018-10-18T20:14:43.387Z,99142.32
2018-10-18T20:17:15.421Z,99137.39
2018-10-18T20:19:47.395Z,99142.44
2018-10-18T20:22:19.378Z,99140.38
2018-10-18T20:24:51.638Z,99138.37
2018-10-18T20:27:23.741Z,99138.11
2018-10-18T20:29:55.853Z,99142.30
2018-10-18T20:32:28.335Z,99144.45
2018-10-18T20:35:00.444Z,99145.28
2018-10-18T20:37:32.416Z,99151.15
2018-10-18T20:40:04.703Z,99156.05
2018-10-18T20:42:36.560Z,99154.52
2018-10-18T20:45:09.391Z,99152.72
2018-10-18T20:47:41.444Z,99153.78
2018-10-18T20:50:14.118Z,99159.41
2018-10-18T20:52:46.194Z,99158.28
2018-10-18T20:55:18.020Z,99152.38
2018-10-18T20:57:50.317Z,99157.17
2018-10-18T21:00:22.379Z,99156.11
2018-10-18T21:02:55.077Z,99157.52
2018-10-18T21:05:27.757Z,99153.42
2018-10-18T21:07:59.697Z,99157.63
2018-10-18T21:10:31.903Z,99155.56
2018-10-18T21:13:03.985Z,99153.78
2018-10-18T21:15:36.064Z,99147.55
2018-10-18T21:18:08.014Z,99148.72
2018-10-18T21:20:40.140Z,99150.86
2018-10-18T21:23:12.210Z,99159.92
2018-10-18T21:25:44.450Z,99156.70
2018-10-18T21:28:16.305Z,99156.25
2018-10-18T21:30:48.396Z,99159.02
2018-10-18T21:33:20.678Z,99164.11
2018-10-18T21:35:52.855Z,99167.22
2018-10-18T21:38:24.585Z,99161.84
2018-10-18T21:40:56.652Z,99166.85
2018-10-18T21:43:28.667Z,99170.33
2018-10-18T21:46:00.810Z,99168.97
2018-10-18T21:48:36.437Z,99169.55
2018-10-18T21:51:08.399Z,99174.73
2018-10-18T21:53:40.588Z,99175.42
2018-10-18T21:56:12.721Z,99173.56
2018-10-18T21:58:44.790Z,99168.73
2018-10-18T22:01:16.925Z,99168.30
2018-10-18T22:03:49.732Z,99172.31
2018-10-18T22:06:21.869Z,99166.50
2018-10-18T22:08:53.694Z,99154.84
2018-10-18T22:11:25.825Z,99158.20
2018-10-18T22:13:57.819Z,99154.27
2018-10-18T22:16:29.871Z,99148.58
2018-10-18T22:19:02.041Z,99148.70
2018-10-18T22:21:34.136Z,99139.13
2018-10-18T22:24:06.021Z,99136.75
2018-10-18T22:26:38.114Z,99136.94
2018-10-18T22:29:10.332Z,99137.89
2018-10-18T22:31:42.424Z,99148.71
2018-10-18T22:34:14.991Z,99147.47
2018-10-18T22:36:47.208Z,99146.67
2018-10-18T22:39:19.289Z,99142.87
2018-10-18T22:41:51.521Z,99147.60
2018-10-18T22:44:23.586Z,99147.10
2018-10-18T22:46:55.626Z,99141.92
2018-10-18T22:49:27.733Z,99142.66
2018-10-18T22:51:59.810Z,99142.29
2018-10-18T22:54:31.790Z,99144.18
2018-10-18T22:57:03.948Z,99149.25
2018-10-18T22:59:35.924Z,99146.95
2018-10-18T23:02:07.945Z,99144.12
2018-10-18T23:04:40.466Z,99145.38
2018-10-18T23:07:12.470Z,99138.70
2018-10-18T23:09:44.428Z,99140.59
2018-10-18T23:12:16.339Z,99145.61
2018-10-18T23:14:48.446Z,99146.08
2018-10-18T23:17:20.426Z,99144.02
2018-10-18T23:19:52.522Z,99141.03
2018-10-18T23:22:24.494Z,99142.88
2018-10-18T23:24:56.502Z,99137.89
2018-10-18T23:27:32.234Z,99131.34
2018-10-18T23:30:04.311Z,99136.06
2018-10-18T23:32:36.695Z,99136.05
2018-10-18T23:35:09.244Z,99139.34
2018-10-18T23:37:41.956Z,99141.83
2018-10-18T23:40:13.736Z,99151.54
2018-10-18T23:42:45.799Z,99156.56
2018-10-18T23:45:21.175Z,99169.71
2018-10-18T23:47:54.025Z,99170.08
2018-10-18T23:50:26.059Z,99171.30
2018-10-18T23:52:58.127Z,99167.77
2018-10-18T23:55:30.171Z,99178.28
2018-10-18T23:58:02.689Z,99181.48
